Hlavní strana
METAR-TAF:

METAR-TAF

Letiště :

Lucembursko, Lucembursko

zeměpisná šířka: 49-37N, zeměpisná délka: 006-13E, výška: 376 m

Aktuální stav počasí

Zpráva byla vytvořena před 25 minutami, v 04:50 UTC
Severovýchodní vítr 12 kt
Teplota 2°C
Vlhkost vzduchu 87%
Tlak 1025 hPa
Viditelnost: 9000 m

METAR: ELLX 170450Z 05012KT 9000 NSC 02/M00 Q1025 NOSIG

Čas: 06:15 (05:15 UTC)

Předpověď počasí

Zpráva byla vytvořena před 6 hodinami a 15 minutami, v 23:00 UTC
Předpověď platná od 17 v 00 UTC do 18 v 06 UTC
Východoseverovýchodní vítr 10 kt
Viditelnost 10 km a více
Žádná oblačnost pod 1500 m, nevyskytují se cumulonimby.
Pravděpodobnost 30%
od 17 v 04 UTC do 17 v 08 UTC
Viditelnost: 5000 m
kouřmo
Dočasný
od 17 v 08 UTC do 17 v 16 UTC
Východní vítr 15 kt s nárazy do 25 kt

TAF: ELLX 162300Z 1700/1806 06010KT CAVOK PROB30 1704/1708 5000 BR TEMPO 1708/1716 08015G25KT

Stav a předpovědi počasí z více než 4 000 letišť (zprávy METAR a TAF).

Červené a žluté tečky na mapě představují dostupné meteorologické stanice.

Když kurzor umístíte na tečku, zobrazí se název stanice.

Pak kliknutím zobrazíte stav a předpověď počasí.

Chcete-li změnit mapu, kliknutím na zelené tlačítko se znaménkem +mapu přiblížíte, kliknutím na zelené tlačítko se znaménkem – mapu oddálíte a kliknutím na zelené šipky přejdete na sousední mapy.


METAR-TAF: